createdAt,value
2018-05-07T00:00:11.000Z,100891
2018-05-07T00:02:11.000Z,100890
2018-05-07T00:03:11.000Z,100889
2018-05-07T00:05:11.000Z,100889
2018-05-07T00:06:11.000Z,100887
2018-05-07T00:08:11.000Z,100888
2018-05-07T00:10:11.000Z,100882
2018-05-07T00:12:11.000Z,100888
2018-05-07T00:13:56.000Z,100881
2018-05-07T00:15:11.000Z,100881
2018-05-07T00:17:11.000Z,100882
2018-05-07T00:19:11.000Z,100873
2018-05-07T00:20:11.000Z,100873
2018-05-07T00:22:11.000Z,100874
2018-05-07T00:23:56.000Z,100870
2018-05-07T00:25:11.000Z,100872
2018-05-07T00:27:11.000Z,100872
2018-05-07T00:28:41.000Z,100872
2018-05-07T00:30:11.000Z,100867
2018-05-07T00:31:11.000Z,100872
2018-05-07T00:32:56.000Z,100869
2018-05-07T00:34:11.000Z,100870
2018-05-07T00:36:11.000Z,100873
2018-05-07T00:37:11.000Z,100868
2018-05-07T00:39:11.000Z,100869
2018-05-07T00:41:11.000Z,100868
2018-05-07T00:42:56.000Z,100870
2018-05-07T00:44:11.000Z,100865
2018-05-07T00:46:11.000Z,100866
2018-05-07T00:47:41.000Z,100864
2018-05-07T00:49:11.000Z,100865
2018-05-07T00:50:11.000Z,100872
2018-05-07T00:51:11.000Z,100871
2018-05-07T00:52:56.000Z,100863
2018-05-07T00:54:11.000Z,100865
2018-05-07T00:55:11.000Z,100863
2018-05-07T00:57:11.000Z,100864
2018-05-07T00:59:11.000Z,100867
2018-05-07T01:01:11.000Z,100867
2018-05-07T01:03:11.000Z,100873
2018-05-07T01:05:11.000Z,100871
2018-05-07T01:07:11.000Z,100874
2018-05-07T01:08:56.000Z,100873
2018-05-07T01:10:11.000Z,100872
2018-05-07T01:11:11.000Z,100880
2018-05-07T01:13:11.000Z,100877
2018-05-07T01:14:56.000Z,100872
2018-05-07T01:16:11.000Z,100877
2018-05-07T01:17:56.000Z,100876
2018-05-07T01:19:11.000Z,100874
2018-05-07T01:21:11.000Z,100878
2018-05-07T01:22:11.000Z,100876
2018-05-07T01:23:56.000Z,100880
2018-05-07T01:25:11.000Z,100883
2018-05-07T01:27:11.000Z,100878
2018-05-07T01:28:11.000Z,100880
2018-05-07T01:30:11.000Z,100880
2018-05-07T01:32:11.000Z,100877
2018-05-07T01:33:56.000Z,100884
2018-05-07T01:35:11.000Z,100880
2018-05-07T01:37:11.000Z,100875
2018-05-07T01:38:11.000Z,100880
2018-05-07T01:40:11.000Z,100873
2018-05-07T01:42:11.000Z,100880
2018-05-07T01:44:11.000Z,100877
2018-05-07T01:46:11.000Z,100874
2018-05-07T01:47:11.000Z,100878
2018-05-07T01:48:11.000Z,100876
2018-05-07T01:50:11.000Z,100874
2018-05-07T01:51:11.000Z,100875
2018-05-07T01:52:56.000Z,100870
2018-05-07T01:54:11.000Z,100869
2018-05-07T01:56:11.000Z,100872
2018-05-07T01:57:11.000Z,100872
2018-05-07T01:59:11.000Z,100871
2018-05-07T02:01:11.000Z,100866
2018-05-07T02:03:11.000Z,100866
2018-05-07T02:05:11.000Z,100869
2018-05-07T02:07:11.000Z,100866
2018-05-07T02:08:56.000Z,100868
2018-05-07T02:10:11.000Z,100870
2018-05-07T02:11:11.000Z,100868
2018-05-07T02:12:11.000Z,100865
2018-05-07T02:14:12.000Z,100871
2018-05-07T02:16:11.000Z,100867
2018-05-07T02:18:11.000Z,100864
2018-05-07T02:19:56.000Z,100865
2018-05-07T02:21:11.000Z,100871
2018-05-07T02:23:11.000Z,100871
2018-05-07T02:25:11.000Z,100865
2018-05-07T02:26:11.000Z,100866
2018-05-07T02:28:11.000Z,100859
2018-05-07T02:30:11.000Z,100858
2018-05-07T02:32:11.000Z,100870
2018-05-07T02:33:11.000Z,100870
2018-05-07T02:34:56.000Z,100870
2018-05-07T02:36:11.000Z,100870
2018-05-07T02:38:11.000Z,100865
2018-05-07T02:40:11.000Z,100861
2018-05-07T02:41:56.000Z,100856
2018-05-07T02:43:11.000Z,100858
2018-05-07T02:45:11.000Z,100861
2018-05-07T02:46:11.000Z,100858
2018-05-07T02:48:11.000Z,100856
2018-05-07T02:50:11.000Z,100860
2018-05-07T02:52:11.000Z,100856
2018-05-07T02:53:11.000Z,100853
2018-05-07T02:54:56.000Z,100855
2018-05-07T02:56:11.000Z,100851
2018-05-07T02:58:11.000Z,100848
2018-05-07T03:00:11.000Z,100850
2018-05-07T03:01:11.000Z,100845
2018-05-07T03:02:11.000Z,100850
2018-05-07T03:04:11.000Z,100841
2018-05-07T03:06:11.000Z,100839
2018-05-07T03:08:11.000Z,100842
2018-05-07T03:09:11.000Z,100845
2018-05-07T03:10:56.000Z,100843
2018-05-07T03:12:11.000Z,100847
2018-05-07T03:14:11.000Z,100840
2018-05-07T03:16:11.000Z,100838
2018-05-07T03:17:11.000Z,100837
2018-05-07T03:19:12.000Z,100836
2018-05-07T03:21:12.000Z,100834
2018-05-07T03:22:12.000Z,100836
2018-05-07T03:23:56.000Z,100829
2018-05-07T03:25:12.000Z,100839
2018-05-07T03:26:12.000Z,100836
2018-05-07T03:28:12.000Z,100829
2018-05-07T03:30:12.000Z,100834
2018-05-07T04:58:07.000Z,100802
2018-05-07T04:59:53.000Z,100800
2018-05-07T05:01:53.000Z,100791
2018-05-07T05:02:53.000Z,100800
2018-05-07T05:04:53.000Z,100805
2018-05-07T05:06:53.000Z,100803
2018-05-07T05:08:53.000Z,100802
2018-05-07T05:09:53.000Z,100805
2018-05-07T05:11:53.000Z,100809
2018-05-07T05:13:53.000Z,100807
2018-05-07T05:15:53.000Z,100811
2018-05-07T05:17:53.000Z,100805
2018-05-07T05:19:37.000Z,100804
2018-05-07T05:20:53.000Z,100800
2018-05-07T05:21:52.000Z,100800
2018-05-07T05:23:37.000Z,100798
2018-05-07T05:24:52.000Z,100792
2018-05-07T05:26:37.000Z,100796
2018-05-07T05:27:52.000Z,100801
2018-05-07T05:29:52.000Z,100796
2018-05-07T05:30:52.000Z,100796
2018-05-07T05:32:52.000Z,100794
2018-05-07T05:34:52.000Z,100804
2018-05-07T05:36:52.000Z,100799
2018-05-07T05:37:52.000Z,100797
2018-05-07T05:38:52.000Z,100801
2018-05-07T05:40:52.000Z,100797
2018-05-07T05:42:52.000Z,100800
2018-05-07T05:43:52.000Z,100794
2018-05-07T05:45:52.000Z,100800
2018-05-07T05:47:52.000Z,100792
2018-05-07T05:49:52.000Z,100797
2018-05-07T05:50:52.000Z,100799
2018-05-07T05:51:52.000Z,100789
2018-05-07T05:53:52.000Z,100794
2018-05-07T05:54:52.000Z,100799
2018-05-07T05:56:52.000Z,100790
2018-05-07T05:58:37.000Z,100790
2018-05-07T05:59:52.000Z,100802
2018-05-07T06:01:52.000Z,100806
2018-05-07T06:03:52.000Z,100804
2018-05-07T06:05:37.000Z,100805
2018-05-07T06:06:52.000Z,100815
2018-05-07T06:07:52.000Z,100809
2018-05-07T06:09:52.000Z,100816
2018-05-07T06:10:52.000Z,100814
2018-05-07T06:12:52.000Z,100817
2018-05-07T06:13:52.000Z,100820
2018-05-07T06:15:52.000Z,100816
2018-05-07T06:17:37.000Z,100811
2018-05-07T06:18:52.000Z,100811
2018-05-07T06:20:52.000Z,100810
2018-05-07T06:22:22.000Z,100813
2018-05-07T06:23:52.000Z,100807
2018-05-07T06:25:52.000Z,100805
2018-05-07T06:27:52.000Z,100806
2018-05-07T06:29:52.000Z,100807
2018-05-07T06:31:52.000Z,100808
2018-05-07T06:32:52.000Z,100804
2018-05-07T06:34:52.000Z,100800
2018-05-07T06:35:52.000Z,100810
2018-05-07T06:37:52.000Z,100802
2018-05-07T06:39:37.000Z,100803
2018-05-07T06:40:52.000Z,100802
2018-05-07T06:42:52.000Z,100804
2018-05-07T06:44:52.000Z,100803
2018-05-07T06:45:52.000Z,100805
2018-05-07T06:47:52.000Z,100805
2018-05-07T06:49:52.000Z,100804
2018-05-07T06:51:52.000Z,100807
2018-05-07T06:52:52.000Z,100803
2018-05-07T06:54:37.000Z,100808
2018-05-07T06:55:52.000Z,100805
2018-05-07T06:57:37.000Z,100806
2018-05-07T06:58:52.000Z,100809
2018-05-07T06:59:52.000Z,100804
2018-05-07T07:01:52.000Z,100804
2018-05-07T07:02:52.000Z,100801
2018-05-07T07:04:52.000Z,100808
2018-05-07T07:06:37.000Z,100804
2018-05-07T07:07:52.000Z,100804
2018-05-07T07:09:37.000Z,100805
2018-05-07T07:10:52.000Z,100809
2018-05-07T07:11:52.000Z,100807
2018-05-07T07:12:52.000Z,100808
2018-05-07T07:14:52.000Z,100809
2018-05-07T07:15:52.000Z,100807
2018-05-07T07:16:52.000Z,100804
2018-05-07T07:18:52.000Z,100800
2018-05-07T07:19:52.000Z,100802
2018-05-07T07:20:52.000Z,100797
2018-05-07T07:22:52.000Z,100795
2018-05-07T07:24:52.000Z,100791
2018-05-07T07:25:52.000Z,100789
2018-05-07T07:27:37.000Z,100794
2018-05-07T07:28:53.000Z,100790
2018-05-07T07:30:38.000Z,100785
2018-05-07T07:32:53.000Z,100787
2018-05-07T07:33:53.000Z,100784
2018-05-07T07:35:38.000Z,100789
2018-05-07T07:36:53.000Z,100786
2018-05-07T07:38:53.000Z,100793
2018-05-07T07:39:53.000Z,100793
2018-05-07T07:41:53.000Z,100795
2018-05-07T07:42:53.000Z,100793
2018-05-07T07:44:53.000Z,100789
2018-05-07T07:46:53.000Z,100796
2018-05-07T07:48:53.000Z,100793
2018-05-07T07:50:53.000Z,100793
2018-05-07T07:52:53.000Z,100791
2018-05-07T07:54:53.000Z,100796
2018-05-07T07:56:53.000Z,100784
2018-05-07T07:57:53.000Z,100793
2018-05-07T07:58:53.000Z,100787
2018-05-07T08:00:53.000Z,100787
2018-05-07T08:02:53.000Z,100793
2018-05-07T08:04:53.000Z,100787
2018-05-07T08:06:53.000Z,100791
2018-05-07T08:08:22.000Z,100790
2018-05-07T08:09:53.000Z,100788
2018-05-07T08:11:53.000Z,100786
2018-05-07T08:13:53.000Z,100788
2018-05-07T08:15:38.000Z,100787
2018-05-07T08:16:53.000Z,100784
2018-05-07T08:18:53.000Z,100783
2018-05-07T08:20:53.000Z,100788
2018-05-07T08:22:53.000Z,100786
2018-05-07T08:24:53.000Z,100780
2018-05-07T08:26:53.000Z,100781
2018-05-07T08:27:53.000Z,100777
2018-05-07T08:29:53.000Z,100776
2018-05-07T08:30:53.000Z,100778
2018-05-07T08:32:38.000Z,100776
2018-05-07T08:34:53.000Z,100770
2018-05-07T08:36:53.000Z,100773
2018-05-07T08:38:53.000Z,100770
2018-05-07T08:39:53.000Z,100769
2018-05-07T08:40:53.000Z,100767
2018-05-07T08:42:53.000Z,100765
2018-05-07T08:44:53.000Z,100764
2018-05-07T08:45:53.000Z,100762
2018-05-07T08:47:53.000Z,100760
2018-05-07T08:49:53.000Z,100759
2018-05-07T08:51:53.000Z,100758
2018-05-07T08:53:53.000Z,100754
2018-05-07T08:54:53.000Z,100757
2018-05-07T08:56:37.000Z,100755
2018-05-07T08:57:53.000Z,100751
2018-05-07T08:58:53.000Z,100754
2018-05-07T09:00:53.000Z,100750
2018-05-07T09:02:53.000Z,100750
2018-05-07T09:03:53.000Z,100748
2018-05-07T09:05:53.000Z,100752
2018-05-07T09:07:53.000Z,100746
2018-05-07T09:09:53.000Z,100742
2018-05-07T09:11:53.000Z,100748
2018-05-07T09:13:53.000Z,100743
2018-05-07T09:15:53.000Z,100741
2018-05-07T09:16:53.000Z,100744
2018-05-07T09:18:53.000Z,100739
2018-05-07T09:20:53.000Z,100740
2018-05-07T09:22:53.000Z,100741
2018-05-07T09:24:53.000Z,100737
2018-05-07T09:26:53.000Z,100735
2018-05-07T09:28:53.000Z,100737
2018-05-07T09:30:53.000Z,100728
2018-05-07T09:32:53.000Z,100720
2018-05-07T09:34:53.000Z,100725
2018-05-07T09:36:52.000Z,100719
2018-05-07T09:38:52.000Z,100717
2018-05-07T09:39:52.000Z,100718
2018-05-07T09:40:52.000Z,100718
2018-05-07T09:42:22.000Z,100712
2018-05-07T09:43:52.000Z,100710
2018-05-07T09:45:52.000Z,100712
2018-05-07T09:46:52.000Z,100707
2018-05-07T09:47:52.000Z,100705
2018-05-07T09:49:52.000Z,100713
2018-05-07T09:51:52.000Z,100709
2018-05-07T09:53:37.000Z,100711
2018-05-07T09:54:52.000Z,100704
2018-05-07T09:56:52.000Z,100710
2018-05-07T09:58:52.000Z,100703
2018-05-07T10:00:52.000Z,100703
2018-05-07T10:02:52.000Z,100694
2018-05-07T10:04:52.000Z,100694
2018-05-07T10:06:52.000Z,100695
2018-05-07T10:07:52.000Z,100690
2018-05-07T10:09:37.000Z,100690
2018-05-07T10:10:52.000Z,100686
2018-05-07T10:12:37.000Z,100685
2018-05-07T10:14:52.000Z,100683
2018-05-07T10:16:52.000Z,100678
2018-05-07T10:17:52.000Z,100675
2018-05-07T10:19:52.000Z,100670
2018-05-07T10:21:52.000Z,100679
2018-05-07T10:22:52.000Z,100675
2018-05-07T10:24:52.000Z,100671
2018-05-07T10:26:52.000Z,100673
2018-05-07T10:28:52.000Z,100664
2018-05-07T10:29:52.000Z,100662
2018-05-07T10:30:52.000Z,100665
2018-05-07T10:32:52.000Z,100665
2018-05-07T10:33:52.000Z,100663
2018-05-07T10:35:52.000Z,100661
2018-05-07T10:37:52.000Z,100664
2018-05-07T10:39:53.000Z,100659
2018-05-07T10:41:37.000Z,100661
2018-05-07T10:42:53.000Z,100661
2018-05-07T10:44:53.000Z,100666
2018-05-07T10:46:53.000Z,100661
2018-05-07T10:48:53.000Z,100656
2018-05-07T10:50:53.000Z,100653
2018-05-07T10:52:53.000Z,100649
2018-05-07T10:54:53.000Z,100652
2018-05-07T10:55:53.000Z,100654
2018-05-07T10:57:53.000Z,100647
2018-05-07T10:59:53.000Z,100645
2018-05-07T11:00:53.000Z,100642
2018-05-07T11:02:53.000Z,100644
2018-05-07T11:03:53.000Z,100648
2018-05-07T11:05:53.000Z,100643
2018-05-07T11:07:53.000Z,100638
2018-05-07T11:08:53.000Z,100632
2018-05-07T11:10:53.000Z,100632
2018-05-07T11:12:53.000Z,100629
2018-05-07T11:13:53.000Z,100631
2018-05-07T11:15:53.000Z,100624
2018-05-07T11:17:53.000Z,100618
2018-05-07T11:19:37.000Z,100619
2018-05-07T11:20:53.000Z,100616
2018-05-07T11:22:53.000Z,100614
2018-05-07T11:23:53.000Z,100617
2018-05-07T11:24:53.000Z,100617
2018-05-07T11:26:53.000Z,100618
2018-05-07T11:27:53.000Z,100618
2018-05-07T11:29:53.000Z,100620
2018-05-07T11:30:53.000Z,100612
2018-05-07T11:32:53.000Z,100616
2018-05-07T11:34:53.000Z,100614
2018-05-07T11:35:53.000Z,100615
2018-05-07T11:36:53.000Z,100615
2018-05-07T11:38:53.000Z,100613
2018-05-07T11:39:53.000Z,100612
2018-05-07T11:41:53.000Z,100613
2018-05-07T11:43:38.000Z,100610
2018-05-07T11:44:38.000Z,100614
2018-05-07T11:45:53.000Z,100607
2018-05-07T11:46:53.000Z,100615
2018-05-07T11:48:53.000Z,100606
2018-05-07T11:50:38.000Z,100602
2018-05-07T11:51:53.000Z,100598
2018-05-07T11:53:53.000Z,100605
2018-05-07T11:54:53.000Z,100603
2018-05-07T11:56:53.000Z,100605
2018-05-07T11:57:53.000Z,100597
2018-05-07T11:59:53.000Z,100597
2018-05-07T12:01:53.000Z,100593
2018-05-07T12:03:53.000Z,100599
2018-05-07T12:05:53.000Z,100593
2018-05-07T12:07:53.000Z,100595
2018-05-07T12:08:53.000Z,100594
2018-05-07T12:10:53.000Z,100590
2018-05-07T12:12:38.000Z,100590
2018-05-07T12:13:53.000Z,100588
2018-05-07T12:15:53.000Z,100581
2018-05-07T12:17:53.000Z,100578
2018-05-07T12:19:53.000Z,100578
2018-05-07T12:21:38.000Z,100573
2018-05-07T12:22:53.000Z,100570
2018-05-07T12:24:38.000Z,100576
2018-05-07T12:25:53.000Z,100575
2018-05-07T12:26:53.000Z,100570
2018-05-07T12:28:53.000Z,100569
2018-05-07T12:30:53.000Z,100574
2018-05-07T12:32:53.000Z,100569
2018-05-07T12:34:53.000Z,100565
2018-05-07T12:35:53.000Z,100571
2018-05-07T12:36:53.000Z,100565
2018-05-07T12:38:53.000Z,100568
2018-05-07T12:40:53.000Z,100558
2018-05-07T12:41:53.000Z,100563
2018-05-07T12:43:53.000Z,100559
2018-05-07T12:45:38.000Z,100554
2018-05-07T12:46:52.000Z,100554
2018-05-07T12:47:52.000Z,100556
2018-05-07T12:49:52.000Z,100551
2018-05-07T12:50:52.000Z,100552
2018-05-07T12:52:52.000Z,100544
2018-05-07T12:54:52.000Z,100542
2018-05-07T12:56:52.000Z,100548
2018-05-07T12:57:52.000Z,100543
2018-05-07T12:59:37.000Z,100537
2018-05-07T13:00:52.000Z,100534
2018-05-07T13:02:52.000Z,100530
2018-05-07T13:04:37.000Z,100528
2018-05-07T13:05:52.000Z,100528
2018-05-07T13:06:52.000Z,100526
2018-05-07T13:08:52.000Z,100525
2018-05-07T13:09:52.000Z,100525
2018-05-07T13:10:52.000Z,100518
2018-05-07T13:12:37.000Z,100520
2018-05-07T13:13:52.000Z,100518
2018-05-07T13:15:52.000Z,100511
2018-05-07T13:17:52.000Z,100514
2018-05-07T13:18:52.000Z,100513
2018-05-07T13:20:37.000Z,100518
2018-05-07T13:21:52.000Z,100511
2018-05-07T13:23:52.000Z,100504
2018-05-07T13:25:52.000Z,100507
2018-05-07T13:27:52.000Z,100507
2018-05-07T13:29:52.000Z,100498
2018-05-07T13:31:37.000Z,100496
2018-05-07T13:32:52.000Z,100497
2018-05-07T13:34:22.000Z,100490
2018-05-07T13:35:52.000Z,100488
2018-05-07T13:37:52.000Z,100487
2018-05-07T13:39:52.000Z,100484
2018-05-07T13:40:52.000Z,100482
2018-05-07T13:42:52.000Z,100480
2018-05-07T13:43:52.000Z,100481
2018-05-07T13:44:52.000Z,100482
2018-05-07T13:46:37.000Z,100474
2018-05-07T13:47:52.000Z,100467
2018-05-07T13:49:22.000Z,100475
2018-05-07T13:50:53.000Z,100467
2018-05-07T13:52:53.000Z,100463
2018-05-07T13:54:53.000Z,100467
2018-05-07T13:56:53.000Z,100463
2018-05-07T13:58:53.000Z,100463
2018-05-07T14:00:53.000Z,100455
2018-05-07T14:02:53.000Z,100453
2018-05-07T14:04:37.000Z,100441
2018-05-07T14:05:53.000Z,100446
2018-05-07T14:07:53.000Z,100440
2018-05-07T14:09:53.000Z,100441
2018-05-07T14:11:37.000Z,100437
2018-05-07T14:12:53.000Z,100440
2018-05-07T14:14:53.000Z,100432
2018-05-07T14:16:53.000Z,100432
2018-05-07T14:18:53.000Z,100433
2018-05-07T14:20:53.000Z,100430
2018-05-07T14:22:37.000Z,100425
2018-05-07T14:23:53.000Z,100430
2018-05-07T14:25:53.000Z,100425
2018-05-07T14:26:53.000Z,100427
2018-05-07T14:28:53.000Z,100424
2018-05-07T14:30:53.000Z,100427
2018-05-07T14:31:53.000Z,100423
2018-05-07T14:33:53.000Z,100423
2018-05-07T14:34:53.000Z,100417
2018-05-07T14:36:37.000Z,100425
2018-05-07T14:37:53.000Z,100420
2018-05-07T14:39:53.000Z,100418
2018-05-07T14:40:53.000Z,100416
2018-05-07T14:42:53.000Z,100416
2018-05-07T14:43:53.000Z,100418
2018-05-07T14:45:53.000Z,100414
2018-05-07T14:47:53.000Z,100413
2018-05-07T14:49:53.000Z,100409
2018-05-07T14:50:53.000Z,100405
2018-05-07T14:52:53.000Z,100409
2018-05-07T14:53:53.000Z,100404
2018-05-07T14:54:53.000Z,100407
2018-05-07T14:56:22.000Z,100404
2018-05-07T14:57:53.000Z,100399
2018-05-07T14:59:37.000Z,100399
2018-05-07T15:00:53.000Z,100398
2018-05-07T15:02:53.000Z,100402
2018-05-07T15:04:53.000Z,100397
2018-05-07T15:06:53.000Z,100396
2018-05-07T15:08:53.000Z,100390
2018-05-07T15:10:53.000Z,100393
2018-05-07T15:12:53.000Z,100398
2018-05-07T15:13:53.000Z,100395
2018-05-07T15:15:53.000Z,100385
2018-05-07T15:17:53.000Z,100383
2018-05-07T15:18:53.000Z,100395
2018-05-07T15:20:37.000Z,100387
2018-05-07T15:21:53.000Z,100387
2018-05-07T15:23:53.000Z,100374
2018-05-07T15:24:53.000Z,100383
2018-05-07T15:26:53.000Z,100377
2018-05-07T15:27:53.000Z,100372
2018-05-07T15:29:53.000Z,100377
2018-05-07T15:30:53.000Z,100374
2018-05-07T15:32:53.000Z,100371
2018-05-07T15:34:53.000Z,100374
2018-05-07T15:36:53.000Z,100373
2018-05-07T15:38:53.000Z,100368
2018-05-07T15:40:53.000Z,100369
2018-05-07T15:42:53.000Z,100362
2018-05-07T15:44:53.000Z,100368
2018-05-07T15:45:53.000Z,100361
2018-05-07T15:47:53.000Z,100360
2018-05-07T15:49:53.000Z,100359
2018-05-07T15:50:53.000Z,100359
2018-05-07T15:52:53.000Z,100356
2018-05-07T15:53:53.000Z,100358
2018-05-07T15:54:53.000Z,100354
2018-05-07T15:55:53.000Z,100359
2018-05-07T15:57:38.000Z,100351
2018-05-07T15:58:53.000Z,100355
2018-05-07T15:59:53.000Z,100354
2018-05-07T16:01:53.000Z,100351
2018-05-07T16:02:53.000Z,100354
2018-05-07T16:04:53.000Z,100352
2018-05-07T16:05:53.000Z,100354
2018-05-07T16:07:53.000Z,100355
2018-05-07T16:08:53.000Z,100351
2018-05-07T16:10:53.000Z,100349
2018-05-07T16:12:22.000Z,100343
2018-05-07T16:13:53.000Z,100342
2018-05-07T16:15:53.000Z,100345
2018-05-07T16:17:53.000Z,100343
2018-05-07T16:19:53.000Z,100338
2018-05-07T16:21:53.000Z,100340
2018-05-07T16:22:53.000Z,100336
2018-05-07T16:23:53.000Z,100333
2018-05-07T16:25:53.000Z,100336
2018-05-07T16:27:53.000Z,100335
2018-05-07T16:29:22.000Z,100329
2018-05-07T16:30:53.000Z,100333
2018-05-07T16:32:53.000Z,100328
2018-05-07T16:34:53.000Z,100325
2018-05-07T16:36:53.000Z,100324
2018-05-07T16:38:53.000Z,100317
2018-05-07T16:39:53.000Z,100319
2018-05-07T16:41:53.000Z,100312
2018-05-07T16:42:53.000Z,100322
2018-05-07T16:44:53.000Z,100311
2018-05-07T16:46:38.000Z,100313
2018-05-07T16:47:53.000Z,100312
2018-05-07T16:48:53.000Z,100308
2018-05-07T16:49:53.000Z,100308
2018-05-07T16:51:53.000Z,100311
2018-05-07T16:53:53.000Z,100305
2018-05-07T16:55:53.000Z,100310
2018-05-07T16:57:53.000Z,100309
2018-05-07T16:59:53.000Z,100307
2018-05-07T17:00:53.000Z,100308
2018-05-07T17:01:52.000Z,100305
2018-05-07T17:03:52.000Z,100302
2018-05-07T17:05:52.000Z,100296
2018-05-07T17:06:52.000Z,100305
2018-05-07T17:07:52.000Z,100299
2018-05-07T17:09:37.000Z,100305
2018-05-07T17:10:52.000Z,100304
2018-05-07T17:12:52.000Z,100298
2018-05-07T17:14:52.000Z,100301
2018-05-07T17:15:52.000Z,100302
2018-05-07T17:16:52.000Z,100297
2018-05-07T17:18:37.000Z,100292
2018-05-07T17:19:52.000Z,100296
2018-05-07T17:21:52.000Z,100297
2018-05-07T17:23:52.000Z,100290
2018-05-07T17:24:52.000Z,100288
2018-05-07T17:26:52.000Z,100294
2018-05-07T17:28:52.000Z,100289
2018-05-07T17:29:52.000Z,100285
2018-05-07T17:30:52.000Z,100286
2018-05-07T17:32:52.000Z,100292
2018-05-07T17:33:52.000Z,100294
2018-05-07T17:35:52.000Z,100290
2018-05-07T17:36:52.000Z,100290
2018-05-07T17:37:52.000Z,100290
2018-05-07T17:38:52.000Z,100292
2018-05-07T17:40:52.000Z,100287
2018-05-07T17:42:52.000Z,100289
2018-05-07T17:44:52.000Z,100293
2018-05-07T17:45:52.000Z,100287
2018-05-07T17:47:52.000Z,100290
2018-05-07T17:48:52.000Z,100293
2018-05-07T17:50:52.000Z,100290
2018-05-07T17:52:52.000Z,100301
2018-05-07T17:54:52.000Z,100289
2018-05-07T17:56:52.000Z,100292
2018-05-07T17:58:52.000Z,100291
2018-05-07T18:00:37.000Z,100286
2018-05-07T18:01:52.000Z,100285
2018-05-07T18:03:52.000Z,100286
2018-05-07T18:05:53.000Z,100284
2018-05-07T18:07:53.000Z,100288
2018-05-07T18:09:53.000Z,100283
2018-05-07T18:10:53.000Z,100283
2018-05-07T18:11:53.000Z,100286
2018-05-07T18:13:53.000Z,100286
2018-05-07T18:15:53.000Z,100292
2018-05-07T18:17:38.000Z,100290
2018-05-07T18:18:53.000Z,100290
2018-05-07T18:19:53.000Z,100290
2018-05-07T18:21:53.000Z,100285
2018-05-07T18:23:53.000Z,100292
2018-05-07T18:25:38.000Z,100293
2018-05-07T18:26:53.000Z,100294
2018-05-07T18:27:53.000Z,100300
2018-05-07T18:28:53.000Z,100297
2018-05-07T18:30:53.000Z,100293
2018-05-07T18:31:53.000Z,100299
2018-05-07T18:33:53.000Z,100293
2018-05-07T18:35:53.000Z,100299
2018-05-07T18:37:38.000Z,100299
2018-05-07T18:38:53.000Z,100293
2018-05-07T18:39:53.000Z,100296
2018-05-07T18:41:53.000Z,100299
2018-05-07T18:43:53.000Z,100301
2018-05-07T18:44:53.000Z,100298
2018-05-07T18:45:53.000Z,100298
2018-05-07T18:47:53.000Z,100297
2018-05-07T18:49:53.000Z,100304
2018-05-07T18:51:53.000Z,100302
2018-05-07T18:53:53.000Z,100300
2018-05-07T18:55:38.000Z,100298
2018-05-07T18:56:53.000Z,100304
2018-05-07T18:57:53.000Z,100302
2018-05-07T18:59:53.000Z,100302
2018-05-07T19:00:53.000Z,100303
2018-05-07T19:02:53.000Z,100305
2018-05-07T19:04:38.000Z,100303
2018-05-07T19:05:38.000Z,100300
2018-05-07T19:06:53.000Z,100306
2018-05-07T19:08:52.000Z,100308
2018-05-07T19:09:52.000Z,100304
2018-05-07T19:11:52.000Z,100314
2018-05-07T19:13:37.000Z,100309
2018-05-07T19:14:37.000Z,100306
2018-05-07T19:15:52.000Z,100314
2018-05-07T19:17:52.000Z,100313
2018-05-07T19:18:52.000Z,100317
2018-05-07T19:20:52.000Z,100315
2018-05-07T19:21:52.000Z,100318
2018-05-07T19:23:52.000Z,100321
2018-05-07T19:25:52.000Z,100319
2018-05-07T19:26:52.000Z,100322
2018-05-07T19:27:52.000Z,100327
2018-05-07T19:28:52.000Z,100325
2018-05-07T19:30:52.000Z,100320
2018-05-07T19:32:52.000Z,100329
2018-05-07T19:33:52.000Z,100323
2018-05-07T19:35:52.000Z,100323
2018-05-07T19:37:52.000Z,100324
2018-05-07T19:38:52.000Z,100322
2018-05-07T19:40:52.000Z,100327
2018-05-07T19:41:52.000Z,100333
2018-05-07T19:43:52.000Z,100329
2018-05-07T19:44:52.000Z,100332
2018-05-07T19:46:37.000Z,100334
2018-05-07T19:47:52.000Z,100332
2018-05-07T19:49:52.000Z,100329
2018-05-07T19:50:52.000Z,100330
2018-05-07T19:52:52.000Z,100333
2018-05-07T19:54:37.000Z,100226
2018-05-07T19:56:52.000Z,100332
2018-05-07T19:57:52.000Z,100327
2018-05-07T19:59:52.000Z,100327
2018-05-07T20:01:37.000Z,100331
2018-05-07T20:02:52.000Z,100328
2018-05-07T20:04:52.000Z,100329
2018-05-07T20:06:37.000Z,100334
2018-05-07T20:07:52.000Z,100333
2018-05-07T20:08:52.000Z,100330
2018-05-07T20:10:52.000Z,100335
2018-05-07T20:12:53.000Z,100333
2018-05-07T20:13:53.000Z,100336
2018-05-07T20:14:53.000Z,100334
2018-05-07T20:16:53.000Z,100334
2018-05-07T20:18:38.000Z,100338
2018-05-07T20:19:53.000Z,100335
2018-05-07T20:21:53.000Z,100340
2018-05-07T20:23:38.000Z,100339
2018-05-07T20:24:53.000Z,100340
2018-05-07T20:26:53.000Z,100341
2018-05-07T20:27:53.000Z,100344
2018-05-07T20:29:38.000Z,100346
2018-05-07T20:30:53.000Z,100339
2018-05-07T20:32:53.000Z,100344
2018-05-07T20:34:53.000Z,100348
2018-05-07T20:36:53.000Z,100343
2018-05-07T20:38:38.000Z,100341
2018-05-07T20:39:53.000Z,100341
2018-05-07T20:41:53.000Z,100337
2018-05-07T20:43:53.000Z,100333
2018-05-07T20:45:53.000Z,100334
2018-05-07T20:47:22.000Z,100339
2018-05-07T20:48:53.000Z,100337
2018-05-07T20:49:53.000Z,100334
2018-05-07T20:51:53.000Z,100333
2018-05-07T20:53:53.000Z,100336
2018-05-07T20:55:53.000Z,100337
2018-05-07T20:57:22.000Z,100331
2018-05-07T20:58:53.000Z,100341
2018-05-07T20:59:53.000Z,100338
2018-05-07T21:00:53.000Z,100331
2018-05-07T21:02:53.000Z,100333
2018-05-07T21:04:53.000Z,100334
2018-05-07T21:06:53.000Z,100330
2018-05-07T21:08:53.000Z,100335
2018-05-07T21:10:53.000Z,100329
2018-05-07T21:12:53.000Z,100325
2018-05-07T21:13:53.000Z,100324
2018-05-07T21:15:53.000Z,100324
2018-05-07T21:17:38.000Z,100325
2018-05-07T21:18:53.000Z,100323
2018-05-07T21:19:53.000Z,100326
2018-05-07T21:21:53.000Z,100322
2018-05-07T21:22:53.000Z,100324
2018-05-07T21:23:53.000Z,100328
2018-05-07T21:25:53.000Z,100331
2018-05-07T21:27:53.000Z,100329
2018-05-07T21:29:38.000Z,100327
2018-05-07T21:30:53.000Z,100328
2018-05-07T21:31:53.000Z,100323
2018-05-07T21:33:38.000Z,100328
2018-05-07T21:34:53.000Z,100323
2018-05-07T21:36:53.000Z,100323
2018-05-07T21:37:53.000Z,100326
2018-05-07T21:39:53.000Z,100326
2018-05-07T21:41:53.000Z,100324
2018-05-07T21:43:38.000Z,100323